createdAt,value
2023-05-06T00:01:23.673Z,4.23
2023-05-06T00:03:50.259Z,3.96
2023-05-06T00:06:16.797Z,4.18
2023-05-06T00:08:43.262Z,4.46
2023-05-06T00:11:09.645Z,4.40
2023-05-06T00:13:36.035Z,4.50
2023-05-06T00:16:02.441Z,4.00
2023-05-06T00:18:28.862Z,3.98
2023-05-06T00:20:55.366Z,4.04
2023-05-06T00:23:21.764Z,4.43
2023-05-06T00:25:48.133Z,4.41
2023-05-06T00:28:14.538Z,4.42
2023-05-06T00:30:40.911Z,4.44
2023-05-06T00:33:07.569Z,4.51
2023-05-06T00:35:34.014Z,4.57
2023-05-06T00:38:00.449Z,4.47
2023-05-06T00:40:26.935Z,4.41
2023-05-06T00:42:53.384Z,4.22
2023-05-06T00:45:19.778Z,4.18
2023-05-06T00:47:46.296Z,3.83
2023-05-06T00:50:12.703Z,4.26
2023-05-06T00:52:39.081Z,3.99
2023-05-06T00:55:06.152Z,4.07
2023-05-06T00:57:32.583Z,4.30
2023-05-06T00:59:59.008Z,4.12
2023-05-06T01:02:33.211Z,3.94
2023-05-06T01:05:02.827Z,4.19
2023-05-06T01:07:29.303Z,3.87
2023-05-06T01:09:55.779Z,4.04
2023-05-06T01:12:22.236Z,4.36
2023-05-06T01:14:48.731Z,4.37
2023-05-06T01:17:17.466Z,3.65
2023-05-06T01:19:43.906Z,3.76
2023-05-06T01:22:13.353Z,3.90
2023-05-06T01:24:39.758Z,4.10
2023-05-06T01:27:06.392Z,3.88
2023-05-06T01:29:32.787Z,4.34
2023-05-06T01:32:01.507Z,13.28
2023-05-06T01:34:27.949Z,3.94
2023-05-06T01:36:54.383Z,3.87
2023-05-06T01:39:20.775Z,3.79
2023-05-06T01:41:47.330Z,3.69
2023-05-06T01:44:13.745Z,3.57
2023-05-06T01:46:45.612Z,3.49
2023-05-06T01:49:14.249Z,3.68
2023-05-06T01:51:40.623Z,3.70
2023-05-06T01:54:13.041Z,3.62
2023-05-06T01:56:39.508Z,3.80
2023-05-06T01:59:05.889Z,3.93
2023-05-06T02:01:32.380Z,3.86
2023-05-06T02:03:58.921Z,3.69
2023-05-06T02:06:25.529Z,3.79
2023-05-06T02:08:51.947Z,4.27
2023-05-06T02:11:18.485Z,3.88
2023-05-06T02:13:44.852Z,3.66
2023-05-06T02:16:14.435Z,3.70
2023-05-06T02:18:40.875Z,3.54
2023-05-06T02:21:07.335Z,3.55
2023-05-06T02:23:33.721Z,3.52
2023-05-06T02:26:00.301Z,3.55
2023-05-06T02:28:28.254Z,4.00
2023-05-06T02:30:54.697Z,3.85
2023-05-06T02:33:21.077Z,4.28
2023-05-06T02:35:47.486Z,3.86
2023-05-06T02:38:14.019Z,3.60
2023-05-06T02:40:40.440Z,3.66
2023-05-06T02:43:06.812Z,4.03
2023-05-06T02:45:33.363Z,3.79
2023-05-06T02:47:59.797Z,3.97
2023-05-06T02:50:28.832Z,3.99
2023-05-06T02:52:55.314Z,4.01
2023-05-06T02:55:21.728Z,3.99
2023-05-06T02:57:48.377Z,4.08
2023-05-06T03:00:14.762Z,4.07
2023-05-06T03:02:43.530Z,4.16
2023-05-06T03:05:10.153Z,4.11
2023-05-06T03:07:36.732Z,4.05
2023-05-06T03:10:03.283Z,4.25
2023-05-06T03:12:29.672Z,4.19
2023-05-06T03:15:00.857Z,4.15
2023-05-06T03:17:41.348Z,4.28
2023-05-06T03:20:07.761Z,3.75
2023-05-06T03:22:34.354Z,4.31
2023-05-06T03:25:00.747Z,4.54
2023-05-06T03:27:27.416Z,4.49
2023-05-06T03:29:53.892Z,4.91
2023-05-06T03:32:26.397Z,4.88
2023-05-06T03:34:52.860Z,5.07
2023-05-06T03:37:19.368Z,4.78
2023-05-06T03:39:45.768Z,5.15
2023-05-06T03:42:12.193Z,5.17
2023-05-06T03:44:38.616Z,5.18
2023-05-06T03:47:05.020Z,5.17
2023-05-06T03:49:31.484Z,5.30
2023-05-06T03:51:57.906Z,5.23
2023-05-06T03:54:27.047Z,4.87
2023-05-06T03:56:53.528Z,4.76
2023-05-06T03:59:19.918Z,5.10
2023-05-06T04:01:46.453Z,4.87
2023-05-06T04:04:12.905Z,4.15
2023-05-06T04:06:40.309Z,4.55
2023-05-06T04:09:06.789Z,4.78
2023-05-06T04:11:33.226Z,4.63
2023-05-06T04:13:59.736Z,4.63
2023-05-06T04:16:26.187Z,4.64
2023-05-06T04:18:52.739Z,5.12
2023-05-06T04:21:19.175Z,4.67
2023-05-06T04:23:45.716Z,4.68
2023-05-06T04:26:12.063Z,4.63
2023-05-06T04:28:44.269Z,5.13
2023-05-06T04:31:10.835Z,4.85
2023-05-06T04:33:37.372Z,4.78
2023-05-06T04:36:03.838Z,4.89
2023-05-06T04:38:30.289Z,4.77
2023-05-06T04:40:56.911Z,4.80
2023-05-06T04:43:23.397Z,4.86
2023-05-06T04:45:49.943Z,4.81
2023-05-06T04:48:16.673Z,4.53
2023-05-06T04:50:43.055Z,4.67
2023-05-06T04:53:11.998Z,4.38
2023-05-06T04:55:38.534Z,4.33
2023-05-06T04:58:04.950Z,4.06
2023-05-06T05:00:31.339Z,4.48
2023-05-06T05:02:57.956Z,4.73
2023-05-06T05:05:24.414Z,4.85
2023-05-06T05:07:50.939Z,4.94
2023-05-06T05:10:17.311Z,4.71
2023-05-06T05:12:43.772Z,5.14
2023-05-06T05:15:10.356Z,5.12
2023-05-06T05:17:37.009Z,4.63
2023-05-06T05:20:03.418Z,4.88
2023-05-06T05:22:29.816Z,4.63
2023-05-06T05:24:56.237Z,4.96
2023-05-06T05:27:22.686Z,4.56
2023-05-06T05:29:49.228Z,4.43
2023-05-06T05:32:15.619Z,4.62
2023-05-06T05:34:42.050Z,4.29
2023-05-06T05:37:10.729Z,4.53
2023-05-06T05:39:37.226Z,4.06
2023-05-06T05:42:03.963Z,3.79
2023-05-06T05:44:30.333Z,4.23
2023-05-06T05:46:57.965Z,3.79
2023-05-06T05:49:24.319Z,3.98
2023-05-06T05:51:50.902Z,4.07
2023-05-06T05:54:17.289Z,4.03
2023-05-06T05:56:43.694Z,4.42
2023-05-06T05:59:10.198Z,3.92
2023-05-06T06:01:36.623Z,4.19
2023-05-06T06:04:03.094Z,4.43
2023-05-06T06:06:29.604Z,4.08
2023-05-06T06:08:56.164Z,3.89
2023-05-06T06:11:22.696Z,4.18
2023-05-06T06:13:49.544Z,3.92
2023-05-06T06:16:16.227Z,3.72
2023-05-06T06:18:42.646Z,3.83
2023-05-06T06:21:09.029Z,3.82
2023-05-06T06:23:35.476Z,4.06
2023-05-06T06:26:01.908Z,4.31
2023-05-06T06:28:28.569Z,3.90
2023-05-06T06:30:55.016Z,3.96
2023-05-06T06:33:21.558Z,3.80
2023-05-06T06:35:47.981Z,3.70
2023-05-06T06:38:14.420Z,4.10
2023-05-06T06:40:40.890Z,3.89
2023-05-06T06:43:07.301Z,4.09
2023-05-06T06:45:33.816Z,3.98
2023-05-06T06:48:00.314Z,4.03
2023-05-06T06:50:26.829Z,3.85
2023-05-06T06:52:53.258Z,4.33
2023-05-06T06:55:19.792Z,3.64
2023-05-06T06:57:46.158Z,3.84
2023-05-06T07:00:12.573Z,3.56
2023-05-06T07:02:39.013Z,3.75
2023-05-06T07:05:05.876Z,3.74
2023-05-06T07:07:35.310Z,3.66
2023-05-06T07:10:01.707Z,3.54
2023-05-06T07:12:28.167Z,3.52
2023-05-06T07:14:54.608Z,3.88
2023-05-06T07:17:23.675Z,3.77
2023-05-06T07:19:50.104Z,3.80
2023-05-06T07:22:16.544Z,3.71
2023-05-06T07:24:42.933Z,3.41
2023-05-06T07:27:09.773Z,3.31
2023-05-06T07:29:36.230Z,3.30
2023-05-06T07:32:02.637Z,3.39
2023-05-06T07:34:29.074Z,2.96
2023-05-06T07:36:55.592Z,3.32
2023-05-06T07:39:22.079Z,3.33
2023-05-06T07:41:48.685Z,3.29
2023-05-06T07:44:15.228Z,3.69
2023-05-06T07:46:41.966Z,3.08
2023-05-06T07:49:10.113Z,3.26
2023-05-06T07:51:36.531Z,3.26
2023-05-06T07:54:03.219Z,3.02
2023-05-06T07:56:29.802Z,3.04
2023-05-06T07:58:56.395Z,3.00
2023-05-06T08:01:23.009Z,3.36
2023-05-06T08:03:49.552Z,3.03
2023-05-06T08:06:16.049Z,3.17
2023-05-06T08:08:42.491Z,3.02
2023-05-06T08:11:08.972Z,3.03
2023-05-06T08:13:35.405Z,3.05
2023-05-06T08:16:03.466Z,3.88
2023-05-06T08:18:30.068Z,3.85
2023-05-06T08:20:56.584Z,3.89
2023-05-06T08:23:23.135Z,3.70
2023-05-06T08:25:49.642Z,3.44
2023-05-06T08:28:16.065Z,3.57
2023-05-06T08:30:42.614Z,3.66
2023-05-06T08:33:09.104Z,4.31
2023-05-06T08:35:35.613Z,3.73
2023-05-06T08:38:02.084Z,3.68
2023-05-06T08:40:28.456Z,3.58
2023-05-06T08:42:56.080Z,3.26
2023-05-06T08:45:22.503Z,3.02
2023-05-06T08:47:51.351Z,2.76
2023-05-06T08:50:17.770Z,3.27
2023-05-06T08:52:44.283Z,3.14
2023-05-06T08:55:10.885Z,2.94
2023-05-06T08:57:37.461Z,3.39
2023-05-06T09:00:06.061Z,3.40
2023-05-06T09:02:32.682Z,3.44
2023-05-06T09:04:59.231Z,3.53
2023-05-06T09:07:25.773Z,3.67
2023-05-06T09:09:54.521Z,3.07
2023-05-06T09:12:20.914Z,3.77
2023-05-06T09:14:47.692Z,3.99
2023-05-06T09:17:14.260Z,3.40
2023-05-06T09:19:40.637Z,3.42
2023-05-06T09:22:07.074Z,3.44
2023-05-06T09:24:33.490Z,4.05
2023-05-06T09:26:59.887Z,4.29
2023-05-06T09:29:26.464Z,4.00
2023-05-06T09:31:52.967Z,3.71
2023-05-06T09:34:19.391Z,3.62
2023-05-06T09:36:45.901Z,3.72
2023-05-06T09:39:12.290Z,3.79
2023-05-06T09:41:38.799Z,3.86
2023-05-06T09:44:05.244Z,3.74
2023-05-06T09:46:31.735Z,3.60
2023-05-06T09:48:58.333Z,3.63
2023-05-06T09:51:24.969Z,3.77
2023-05-06T09:53:51.455Z,3.71
2023-05-06T09:56:17.865Z,3.46
2023-05-06T09:58:44.508Z,3.45
2023-05-06T10:01:12.080Z,3.41
2023-05-06T10:03:39.807Z,3.43
2023-05-06T10:06:06.409Z,3.56
2023-05-06T10:08:32.812Z,3.94
2023-05-06T10:10:59.270Z,6.34
2023-05-06T10:13:25.770Z,5.16
2023-05-06T10:15:52.286Z,4.23
2023-05-06T10:18:18.744Z,4.84
2023-05-06T10:20:45.382Z,4.63
2023-05-06T10:23:11.794Z,4.95
2023-05-06T10:25:38.285Z,4.29
2023-05-06T10:28:06.164Z,4.21
2023-05-06T10:30:37.109Z,4.20
2023-05-06T10:33:03.584Z,4.00
2023-05-06T10:35:30.066Z,4.20
2023-05-06T10:37:56.540Z,4.00
2023-05-06T10:40:22.987Z,4.59
2023-05-06T10:42:49.508Z,4.09
2023-05-06T10:45:15.952Z,4.00
2023-05-06T10:47:42.413Z,4.02
2023-05-06T10:50:08.870Z,4.31
2023-05-06T10:52:35.280Z,3.44
2023-05-06T10:55:01.874Z,3.84
2023-05-06T10:57:28.394Z,4.15
2023-05-06T10:59:54.872Z,3.40
2023-05-06T11:02:21.456Z,3.78
2023-05-06T11:04:48.094Z,5.11
2023-05-06T11:07:14.531Z,4.39
2023-05-06T11:09:41.021Z,4.45
2023-05-06T11:12:07.508Z,3.92
2023-05-06T11:14:33.945Z,3.81
2023-05-06T11:17:00.430Z,3.64
2023-05-06T11:19:26.840Z,3.90
2023-05-06T11:21:53.484Z,4.01
2023-05-06T11:24:19.905Z,6.86
2023-05-06T11:26:46.493Z,3.72
2023-05-06T11:29:13.504Z,3.77
2023-05-06T11:31:39.994Z,3.61
2023-05-06T11:34:06.400Z,3.65
2023-05-06T11:36:32.917Z,3.61
2023-05-06T11:38:59.649Z,3.53
2023-05-06T11:41:26.196Z,3.38
2023-05-06T11:43:52.702Z,3.37
2023-05-06T11:46:19.396Z,3.53
2023-05-06T11:48:45.985Z,3.36
2023-05-06T11:51:12.558Z,3.31
2023-05-06T11:53:38.970Z,3.64
2023-05-06T11:56:05.384Z,3.38
2023-05-06T11:58:31.776Z,3.72
2023-05-06T12:01:00.901Z,3.45
2023-05-06T12:03:27.529Z,3.41
2023-05-06T12:05:54.140Z,3.56
2023-05-06T12:08:27.354Z,3.46
2023-05-06T12:10:54.548Z,3.68
2023-05-06T12:13:20.952Z,3.81
2023-05-06T12:15:47.481Z,3.70
2023-05-06T12:18:13.958Z,3.63
2023-05-06T12:20:40.383Z,4.00
2023-05-06T12:23:06.800Z,3.73
2023-05-06T12:25:33.171Z,3.70
2023-05-06T12:27:59.619Z,3.88
2023-05-06T12:30:26.223Z,4.19
2023-05-06T12:32:52.758Z,4.00
2023-05-06T12:35:19.214Z,3.54
2023-05-06T12:37:45.660Z,3.53
2023-05-06T12:40:12.409Z,3.59
2023-05-06T12:42:39.316Z,3.84
2023-05-06T12:45:05.769Z,5.48
2023-05-06T12:47:32.264Z,7.88
2023-05-06T12:49:59.168Z,4.01
2023-05-06T12:52:25.913Z,4.11
2023-05-06T12:54:52.345Z,3.93
2023-05-06T12:57:18.777Z,3.63
2023-05-06T12:59:45.196Z,6.10
2023-05-06T13:02:11.633Z,4.04
2023-05-06T13:04:38.198Z,3.82
2023-05-06T13:07:04.652Z,3.74
2023-05-06T13:09:31.304Z,3.77
2023-05-06T13:11:57.686Z,3.72
2023-05-06T13:14:24.144Z,3.79
2023-05-06T13:16:50.584Z,3.55
2023-05-06T13:21:46.367Z,3.61
2023-05-06T13:24:12.847Z,3.56
2023-05-06T13:26:39.278Z,3.28
2023-05-06T13:29:05.692Z,3.52
2023-05-06T13:31:32.140Z,3.71
2023-05-06T13:33:58.699Z,3.59
2023-05-06T13:36:25.061Z,3.50
2023-05-06T13:38:51.426Z,3.76
2023-05-06T13:41:17.833Z,3.52
2023-05-06T13:43:44.501Z,3.41
2023-05-06T13:46:11.013Z,3.37
2023-05-06T13:48:37.438Z,3.29
2023-05-06T13:51:03.841Z,3.56
2023-05-06T13:53:30.305Z,3.37
2023-05-06T13:55:56.877Z,3.56
2023-05-06T13:58:23.440Z,3.53
2023-05-06T14:00:49.979Z,3.31
2023-05-06T14:03:16.405Z,3.19
2023-05-06T14:05:44.758Z,3.41
2023-05-06T14:08:11.261Z,3.35
2023-05-06T14:10:37.748Z,3.84
2023-05-06T14:13:06.774Z,5.26
2023-05-06T14:15:33.636Z,6.97
2023-05-06T14:18:00.196Z,3.27
2023-05-06T14:20:26.660Z,3.48
2023-05-06T14:22:53.206Z,3.02
2023-05-06T14:25:19.842Z,3.16
2023-05-06T14:27:46.264Z,3.39
2023-05-06T14:30:13.162Z,3.22
2023-05-06T14:32:39.699Z,3.01
2023-05-06T14:35:06.170Z,3.22
2023-05-06T14:37:32.645Z,2.93
2023-05-06T14:39:59.065Z,2.83
2023-05-06T14:42:25.584Z,3.10
2023-05-06T14:44:52.042Z,2.80
2023-05-06T14:47:18.451Z,2.64
2023-05-06T14:49:44.896Z,2.77
2023-05-06T14:52:11.336Z,2.81
2023-05-06T14:54:37.773Z,2.71
2023-05-06T14:57:04.236Z,2.39
2023-05-06T14:59:30.784Z,2.66
2023-05-06T15:01:57.212Z,2.48
2023-05-06T15:04:23.671Z,2.43
2023-05-06T15:06:50.259Z,2.52
2023-05-06T15:09:16.636Z,2.92
2023-05-06T15:11:43.078Z,2.57
2023-05-06T15:14:09.573Z,2.39
2023-05-06T15:16:36.083Z,2.21
2023-05-06T15:19:02.598Z,2.25
2023-05-06T15:21:29.033Z,2.51
2023-05-06T15:23:55.506Z,2.29
2023-05-06T15:26:22.015Z,2.46
2023-05-06T15:28:48.573Z,2.50
2023-05-06T15:31:15.037Z,2.36
2023-05-06T15:33:41.609Z,2.33
2023-05-06T15:36:08.036Z,2.73
2023-05-06T15:38:34.504Z,2.41
2023-05-06T15:41:00.952Z,2.17
2023-05-06T15:43:36.414Z,2.42
2023-05-06T15:46:05.115Z,2.25
2023-05-06T15:48:34.758Z,2.19
2023-05-06T15:51:01.170Z,2.11
2023-05-06T15:53:27.809Z,2.17
2023-05-06T15:55:57.192Z,1.98
2023-05-06T15:58:30.718Z,2.27
2023-05-06T16:00:57.293Z,2.04
2023-05-06T16:03:23.949Z,2.03
2023-05-06T16:05:50.622Z,1.94
2023-05-06T16:08:17.171Z,1.84
2023-05-06T16:10:43.575Z,2.02
2023-05-06T16:13:11.223Z,4.57
2023-05-06T16:15:37.666Z,2.97
2023-05-06T16:18:04.209Z,2.47
2023-05-06T16:20:30.620Z,2.51
2023-05-06T16:22:57.358Z,2.51
2023-05-06T16:25:23.827Z,2.27
2023-05-06T16:27:50.273Z,2.49
2023-05-06T16:30:16.764Z,2.56
2023-05-06T16:32:43.324Z,2.74
2023-05-06T16:35:09.804Z,2.52
2023-05-06T16:37:36.198Z,2.66
2023-05-06T16:40:02.947Z,2.68
2023-05-06T16:42:29.424Z,2.69
2023-05-06T16:44:55.847Z,2.92
2023-05-06T16:47:22.502Z,2.80
2023-05-06T16:49:49.062Z,3.04
2023-05-06T16:52:15.664Z,3.04
2023-05-06T16:54:42.220Z,2.76
2023-05-06T16:57:11.693Z,2.83
2023-05-06T16:59:38.134Z,2.62
2023-05-06T17:02:04.819Z,2.64
2023-05-06T17:04:31.582Z,2.77
2023-05-06T17:06:58.145Z,2.80
2023-05-06T17:09:27.775Z,2.80
2023-05-06T17:11:54.214Z,2.92
2023-05-06T17:14:20.637Z,2.87
2023-05-06T17:16:49.074Z,2.73
2023-05-06T17:19:15.507Z,2.91
2023-05-06T17:21:41.948Z,3.26
2023-05-06T17:24:08.401Z,2.80
2023-05-06T17:26:35.074Z,2.84
2023-05-06T17:29:01.485Z,2.97
2023-05-06T17:31:28.154Z,3.18
2023-05-06T17:33:54.756Z,3.46
2023-05-06T17:36:21.181Z,3.74
2023-05-06T17:38:48.761Z,4.06
2023-05-06T17:41:15.299Z,4.05
2023-05-06T17:43:41.731Z,3.53
2023-05-06T17:46:08.249Z,3.40
2023-05-06T17:48:41.801Z,3.70
2023-05-06T17:51:08.285Z,4.02
2023-05-06T17:53:36.256Z,3.84
2023-05-06T17:56:02.803Z,3.81
2023-05-06T17:58:29.271Z,4.23
2023-05-06T18:00:55.904Z,7.54
2023-05-06T18:03:22.351Z,6.64
2023-05-06T18:05:48.894Z,4.11
2023-05-06T18:08:15.329Z,4.54
2023-05-06T18:10:41.979Z,4.50
2023-05-06T18:13:08.442Z,4.17
2023-05-06T18:15:35.061Z,4.08
2023-05-06T18:18:01.515Z,5.25
2023-05-06T18:20:27.955Z,6.33
2023-05-06T18:22:54.577Z,4.63
2023-05-06T18:25:21.138Z,5.82
2023-05-06T18:27:47.653Z,4.14
2023-05-06T18:30:14.080Z,4.95
2023-05-06T18:32:40.700Z,4.29
2023-05-06T18:35:07.367Z,5.10
2023-05-06T18:37:33.837Z,3.69
2023-05-06T18:40:01.481Z,3.45
2023-05-06T18:42:27.940Z,3.48
2023-05-06T18:44:54.584Z,3.36
2023-05-06T18:47:21.011Z,3.44
2023-05-06T18:49:47.625Z,3.28
2023-05-06T18:52:14.067Z,3.18
2023-05-06T18:54:42.679Z,3.32
2023-05-06T18:57:09.184Z,3.42
2023-05-06T18:59:35.681Z,3.35
2023-05-06T19:02:03.766Z,3.50
2023-05-06T19:04:30.641Z,3.45
2023-05-06T19:06:57.284Z,3.74
2023-05-06T19:09:23.835Z,3.84
2023-05-06T19:11:50.277Z,3.77
2023-05-06T19:14:16.776Z,4.08
2023-05-06T19:16:43.242Z,3.74
2023-05-06T19:19:09.799Z,3.64
2023-05-06T19:21:36.203Z,4.15
2023-05-06T19:24:02.749Z,3.96
2023-05-06T19:26:29.272Z,3.52
2023-05-06T19:28:55.630Z,3.74
2023-05-06T19:31:22.147Z,4.48
2023-05-06T19:33:48.757Z,4.30
2023-05-06T19:36:15.352Z,3.83
2023-05-06T19:38:41.755Z,4.18
2023-05-06T19:41:08.192Z,4.77
2023-05-06T19:43:34.589Z,4.67
2023-05-06T19:46:01.144Z,8.72
2023-05-06T19:48:27.630Z,5.71
2023-05-06T19:50:54.154Z,10.01
2023-05-06T19:53:20.606Z,6.17
2023-05-06T19:55:46.986Z,6.72
2023-05-06T19:58:13.449Z,4.91
2023-05-06T20:00:39.917Z,4.61
2023-05-06T20:03:06.382Z,5.18
2023-05-06T20:05:32.984Z,5.62
2023-05-06T20:07:59.414Z,6.72
2023-05-06T20:10:25.808Z,5.35
2023-05-06T20:12:52.240Z,5.38
2023-05-06T20:15:18.791Z,5.41
2023-05-06T20:17:45.325Z,5.23
2023-05-06T20:20:11.779Z,6.97
2023-05-06T20:22:38.447Z,5.06
2023-05-06T20:25:04.861Z,4.77
2023-05-06T20:27:31.318Z,5.22
2023-05-06T20:29:57.771Z,4.94
2023-05-06T20:32:25.581Z,5.08
2023-05-06T20:34:52.023Z,5.12
2023-05-06T20:37:18.696Z,4.94
2023-05-06T20:39:45.141Z,4.73
2023-05-06T20:42:11.711Z,4.76
2023-05-06T20:44:38.124Z,5.17
2023-05-06T20:47:04.528Z,6.16
2023-05-06T20:49:30.962Z,5.97
2023-05-06T20:51:57.344Z,6.29
2023-05-06T20:54:23.850Z,31.49
2023-05-06T20:56:50.233Z,26.36
2023-05-06T20:59:16.651Z,14.54
2023-05-06T21:01:43.150Z,9.80
2023-05-06T21:04:09.673Z,7.61
2023-05-06T21:06:36.177Z,6.63
2023-05-06T21:09:02.667Z,6.77
2023-05-06T21:11:29.124Z,6.77
2023-05-06T21:13:55.604Z,6.41
2023-05-06T21:16:22.156Z,6.91
2023-05-06T21:18:48.853Z,6.95
2023-05-06T21:21:15.457Z,7.12
2023-05-06T21:23:41.863Z,6.98
2023-05-06T21:26:08.398Z,6.35
2023-05-06T21:28:34.866Z,6.98
2023-05-06T21:31:01.554Z,6.70
2023-05-06T21:33:27.998Z,7.38
2023-05-06T21:35:54.416Z,7.19
2023-05-06T21:38:20.843Z,7.38
2023-05-06T21:40:47.291Z,6.86
2023-05-06T21:43:14.041Z,7.19
2023-05-06T21:45:40.440Z,7.50
2023-05-06T21:48:07.003Z,7.74
2023-05-06T21:50:33.452Z,7.30
2023-05-06T21:52:59.902Z,7.32
2023-05-06T21:55:26.319Z,7.04
2023-05-06T21:57:52.725Z,7.39
2023-05-06T22:00:19.177Z,6.86
2023-05-06T22:02:45.830Z,6.40
2023-05-06T22:05:12.486Z,5.92
2023-05-06T22:07:39.085Z,5.40
2023-05-06T22:10:05.525Z,5.08
2023-05-06T22:12:31.902Z,5.99
2023-05-06T22:14:58.309Z,7.23
2023-05-06T22:17:24.830Z,7.23
2023-05-06T22:19:51.282Z,6.06
2023-05-06T22:22:18.189Z,6.76
2023-05-06T22:24:44.604Z,6.55
2023-05-06T22:27:11.013Z,6.35
2023-05-06T22:29:37.420Z,7.27
2023-05-06T22:32:03.880Z,7.42
2023-05-06T22:34:30.359Z,7.15
2023-05-06T22:36:58.095Z,7.92
2023-05-06T22:39:25.421Z,8.10
2023-05-06T22:41:51.783Z,8.32
2023-05-06T22:44:18.229Z,8.15
2023-05-06T22:46:46.840Z,7.50
2023-05-06T22:49:13.382Z,9.61
2023-05-06T22:51:39.765Z,8.76
2023-05-06T22:54:06.134Z,7.69
2023-05-06T22:56:32.505Z,8.39
2023-05-06T22:58:58.938Z,7.86
2023-05-06T23:01:25.420Z,7.98
2023-05-06T23:03:51.904Z,7.99
2023-05-06T23:06:18.377Z,8.58
2023-05-06T23:08:44.772Z,8.32
2023-05-06T23:11:11.307Z,9.11
2023-05-06T23:13:37.732Z,8.90
2023-05-06T23:16:04.421Z,9.02
2023-05-06T23:18:30.801Z,8.52
2023-05-06T23:20:57.245Z,7.70
2023-05-06T23:23:23.616Z,7.21
2023-05-06T23:25:50.058Z,6.75
2023-05-06T23:28:16.455Z,6.42
2023-05-06T23:30:42.951Z,5.82
2023-05-06T23:33:09.468Z,6.19
2023-05-06T23:35:35.908Z,6.05
2023-05-06T23:38:02.326Z,6.04
2023-05-06T23:40:28.755Z,6.16
2023-05-06T23:42:55.137Z,5.91
2023-05-06T23:45:21.504Z,6.29
2023-05-06T23:47:47.946Z,6.08
2023-05-06T23:50:14.741Z,5.99
2023-05-06T23:52:41.326Z,6.23
2023-05-06T23:55:07.774Z,5.90
2023-05-06T23:57:34.181Z,5.93
